Terminal Aerodrome Forecast
Issued by NWS Memphis, TN

Home | Current Version | Previous Version | Text Only | Print | Product List | Glossary On
Versions: 1 2 3 4 5 6 7 8 9 10 11 12 13 14 15 16
081
FTUS44 KMEG 180530
TAFMKL
TAF
KMKL 180530Z 1806/1906 22004KT P6SM FEW120 SCT250
      TEMPO 1809/1812 4SM BR SCT010
     FM181600 29006KT P6SM FEW045 SCT250
     FM190100 00000KT P6SM FEW250=

USA.gov is the U.S. government's official web portal to all federal, state and local government web resources and services.